createdAt,value
2019-05-10T00:02:25.978Z,10.33
2019-05-10T00:06:52.953Z,9.20
2019-05-10T00:11:06.377Z,18.60
2019-05-10T00:15:16.913Z,10.97
2019-05-10T00:19:25.678Z,7.40
2019-05-10T00:23:34.334Z,9.40
2019-05-10T00:27:42.953Z,13.13
2019-05-10T00:31:51.569Z,7.97
2019-05-10T00:36:00.275Z,8.60
2019-05-10T00:40:09.121Z,14.33
2019-05-10T00:44:17.744Z,12.90
2019-05-10T00:48:26.394Z,8.20
2019-05-10T00:52:34.934Z,10.20
2019-05-10T00:56:43.631Z,11.47
2019-05-10T01:00:52.374Z,8.23
2019-05-10T01:05:01.265Z,10.50
2019-05-10T01:09:11.532Z,8.53
2019-05-10T01:13:20.154Z,8.20
2019-05-10T01:17:28.780Z,7.40
2019-05-10T01:21:37.382Z,9.00
2019-05-10T01:25:45.991Z,6.23
2019-05-10T01:29:54.606Z,7.33
2019-05-10T01:34:03.300Z,8.30
2019-05-10T01:38:12.231Z,9.77
2019-05-10T01:42:20.819Z,7.60
2019-05-10T01:46:29.438Z,7.17
2019-05-10T01:50:57.380Z,7.33
2019-05-10T01:55:09.206Z,9.17
2019-05-10T01:59:17.783Z,12.20
2019-05-10T02:03:26.839Z,7.33
2019-05-10T02:07:35.413Z,13.00
2019-05-10T02:11:44.011Z,9.60
2019-05-10T02:15:52.590Z,7.83
2019-05-10T02:20:01.283Z,11.33
2019-05-10T02:24:09.850Z,14.07
2019-05-10T02:28:18.456Z,9.43
2019-05-10T02:32:27.116Z,7.47
2019-05-10T02:36:35.775Z,9.43
2019-05-10T02:40:44.618Z,10.87
2019-05-10T02:44:53.218Z,9.80
2019-05-10T02:49:02.107Z,9.50
2019-05-10T02:53:11.446Z,7.10
2019-05-10T02:57:21.964Z,7.37
2019-05-10T03:01:30.645Z,8.37
2019-05-10T03:05:47.827Z,11.27
2019-05-10T03:09:52.854Z,10.47
2019-05-10T03:14:04.538Z,10.60
2019-05-10T03:18:13.618Z,8.20
2019-05-10T03:22:23.907Z,9.70
2019-05-10T03:26:49.724Z,9.60
2019-05-10T03:30:43.524Z,9.60
2019-05-10T03:34:52.193Z,10.30
2019-05-10T03:39:00.911Z,9.27
2019-05-10T03:43:09.460Z,8.30
2019-05-10T03:47:18.090Z,12.37
2019-05-10T03:51:26.692Z,8.60
2019-05-10T03:55:35.348Z,10.37
2019-05-10T03:59:43.965Z,9.70
2019-05-10T04:03:52.594Z,11.57
2019-05-10T04:08:01.308Z,13.53
2019-05-10T04:12:09.980Z,11.17
2019-05-10T04:16:18.611Z,9.73
2019-05-10T04:20:27.249Z,14.13
2019-05-10T04:24:36.673Z,13.20
2019-05-10T04:28:45.408Z,12.57
2019-05-10T04:32:54.041Z,17.40
2019-05-10T04:37:02.694Z,14.13
2019-05-10T04:41:11.322Z,15.97
2019-05-10T04:45:20.004Z,21.23
2019-05-10T04:49:28.673Z,17.10
2019-05-10T04:53:37.292Z,19.67
2019-05-10T04:57:50.489Z,21.45
2019-05-10T05:01:56.559Z,16.80
2019-05-10T05:06:05.626Z,22.20
2019-05-10T05:10:14.341Z,16.77
2019-05-10T05:14:23.354Z,16.47
2019-05-10T05:18:31.989Z,18.63
2019-05-10T05:22:40.618Z,26.30
2019-05-10T05:26:49.531Z,16.73
2019-05-10T05:30:58.177Z,22.90
2019-05-10T05:35:07.134Z,26.67
2019-05-10T05:39:15.737Z,25.90
2019-05-10T05:43:24.389Z,23.30
2019-05-10T05:47:37.586Z,20.63
2019-05-10T05:51:43.670Z,18.67
2019-05-10T05:55:52.332Z,20.30
2019-05-10T06:00:03.968Z,20.20
2019-05-10T06:04:12.752Z,17.53
2019-05-10T06:08:23.297Z,18.43
2019-05-10T06:12:31.809Z,20.10
2019-05-10T06:16:45.216Z,16.33
2019-05-10T06:20:50.728Z,25.17
2019-05-10T06:24:59.354Z,20.17
2019-05-10T06:29:16.122Z,18.90
2019-05-10T06:33:18.301Z,20.37
2019-05-10T06:37:26.894Z,25.20
2019-05-10T06:41:35.494Z,18.97
2019-05-10T06:45:46.764Z,18.03
2019-05-10T06:49:55.014Z,20.00
2019-05-10T06:54:03.744Z,14.90
2019-05-10T06:58:12.410Z,16.50
2019-05-10T07:02:26.157Z,14.53
2019-05-10T07:06:31.243Z,18.30
2019-05-10T07:10:39.865Z,18.07
2019-05-10T07:14:48.562Z,15.50
2019-05-10T07:19:02.183Z,15.03
2019-05-10T07:23:11.067Z,15.17
2019-05-10T07:27:20.072Z,11.77
2019-05-10T07:31:29.020Z,14.20
2019-05-10T07:35:38.817Z,9.30
2019-05-10T07:39:47.580Z,7.47
2019-05-10T07:44:00.475Z,17.63
2019-05-10T07:48:08.295Z,8.93
2019-05-10T07:52:16.853Z,7.03
2019-05-10T07:56:45.552Z,8.40
2019-05-10T08:00:56.156Z,7.63
2019-05-10T08:05:10.985Z,6.17
2019-05-10T08:09:19.250Z,7.13
2019-05-10T08:13:28.659Z,6.97
2019-05-10T08:17:43.263Z,8.17
2019-05-10T08:21:48.783Z,6.97
2019-05-10T08:25:58.272Z,6.43
2019-05-10T08:30:22.743Z,7.70
2019-05-10T08:34:18.835Z,5.03
2019-05-10T08:38:27.511Z,5.63
2019-05-10T08:42:45.506Z,7.93
2019-05-10T08:46:46.816Z,5.30
2019-05-10T08:50:57.629Z,5.70
2019-05-10T08:55:07.323Z,7.47
2019-05-10T08:59:23.634Z,4.30
2019-05-10T09:03:26.215Z,9.27
2019-05-10T09:07:38.836Z,4.20
2019-05-10T09:11:45.870Z,6.87
2019-05-10T09:15:56.939Z,4.40
2019-05-10T09:20:14.029Z,8.83
2019-05-10T09:24:22.885Z,6.87
2019-05-10T09:28:32.245Z,6.07
2019-05-10T09:32:43.205Z,5.73
2019-05-10T09:36:52.998Z,6.10
2019-05-10T09:41:02.484Z,6.80
2019-05-10T09:45:13.292Z,7.00
2019-05-10T09:49:23.236Z,5.53
2019-05-10T09:53:32.024Z,10.60
2019-05-10T09:57:40.734Z,5.10
2019-05-10T10:01:49.345Z,5.37
2019-05-10T10:06:05.119Z,8.30
2019-05-10T10:10:12.848Z,5.47
2019-05-10T10:14:18.776Z,5.90
2019-05-10T10:18:28.393Z,5.60
2019-05-10T10:22:38.189Z,6.30
2019-05-10T10:26:48.168Z,9.00
2019-05-10T10:30:59.956Z,7.93
2019-05-10T10:35:13.367Z,9.73
2019-05-10T10:39:22.849Z,7.13
2019-05-10T10:43:31.245Z,12.17
2019-05-10T10:47:39.953Z,6.67
2019-05-10T10:51:48.603Z,7.77
2019-05-10T10:56:03.404Z,5.93
2019-05-10T11:00:09.375Z,5.60
2019-05-10T11:04:17.962Z,5.30
2019-05-10T11:08:26.588Z,4.93
2019-05-10T11:12:35.150Z,7.87
2019-05-10T11:16:46.700Z,5.17
2019-05-10T11:20:54.243Z,5.33
2019-05-10T11:25:09.094Z,8.27
2019-05-10T11:29:22.034Z,6.57
2019-05-10T11:33:29.357Z,5.70
2019-05-10T11:37:36.436Z,8.07
2019-05-10T11:41:44.418Z,6.03
2019-05-10T11:45:53.068Z,5.50
2019-05-10T11:50:06.352Z,10.90
2019-05-10T11:54:12.361Z,5.43
2019-05-10T11:58:23.739Z,6.47
2019-05-10T12:02:38.677Z,11.50
2019-05-10T12:06:50.122Z,14.60
2019-05-10T12:10:53.747Z,10.57
2019-05-10T12:15:04.458Z,15.63
2019-05-10T12:19:19.809Z,15.30
2019-05-10T12:23:30.152Z,11.50
2019-05-10T12:27:43.976Z,10.83
2019-05-10T12:31:47.501Z,9.33
2019-05-10T12:35:54.166Z,10.10
2019-05-10T12:40:09.937Z,10.77
2019-05-10T12:44:13.530Z,10.07
2019-05-10T12:48:23.596Z,13.10
2019-05-10T12:52:32.458Z,7.77
2019-05-10T12:56:44.044Z,8.17
2019-05-10T13:00:54.248Z,10.23
2019-05-10T13:05:01.699Z,7.70
2019-05-10T13:09:10.207Z,7.87
2019-05-10T13:13:23.721Z,8.20
2019-05-10T13:17:29.196Z,8.33
2019-05-10T13:21:37.869Z,8.17
2019-05-10T13:25:46.522Z,8.17
2019-05-10T13:29:55.135Z,8.57
2019-05-10T13:34:24.388Z,8.53
2019-05-10T13:38:36.810Z,7.57
2019-05-10T13:42:45.751Z,8.83
2019-05-10T13:46:54.129Z,6.17
2019-05-10T13:51:02.752Z,6.40
2019-05-10T13:55:11.436Z,6.57
2019-05-10T13:59:20.076Z,8.73
2019-05-10T14:03:43.763Z,8.70
2019-05-10T14:07:50.922Z,7.20
2019-05-10T14:11:54.549Z,7.40
2019-05-10T14:16:04.182Z,6.67
2019-05-10T14:20:19.458Z,11.30
2019-05-10T14:24:23.278Z,7.40
2019-05-10T14:28:31.985Z,6.97
2019-05-10T14:32:40.622Z,7.30
2019-05-10T14:36:49.250Z,6.77
2019-05-10T14:40:57.786Z,7.87
2019-05-10T14:45:07.672Z,7.57
2019-05-10T14:49:16.291Z,6.83
2019-05-10T14:53:25.737Z,6.93
2019-05-10T14:57:35.216Z,6.40
2019-05-10T15:01:45.424Z,7.80
2019-05-10T15:05:57.549Z,7.40
2019-05-10T15:10:05.578Z,6.83
2019-05-10T15:14:14.241Z,6.43
2019-05-10T15:18:22.940Z,6.63
2019-05-10T15:22:31.501Z,6.50
2019-05-10T15:26:44.038Z,6.47
2019-05-10T15:30:52.702Z,6.20
2019-05-10T15:35:06.978Z,7.00
2019-05-10T15:39:11.098Z,6.90
2019-05-10T15:43:19.703Z,6.23
2019-05-10T15:47:28.330Z,7.40
2019-05-10T15:51:37.002Z,6.07
2019-05-10T15:55:45.642Z,7.40
2019-05-10T15:59:56.713Z,9.27
2019-05-10T16:04:05.035Z,8.10
2019-05-10T16:08:13.871Z,8.87
2019-05-10T16:12:22.779Z,13.60
2019-05-10T16:16:37.283Z,10.87
2019-05-10T16:20:42.580Z,8.87
2019-05-10T16:24:51.193Z,9.90
2019-05-10T16:29:02.179Z,10.13
2019-05-10T16:33:15.755Z,9.80
2019-05-10T16:37:38.521Z,11.43
2019-05-10T16:41:47.560Z,9.67
2019-05-10T16:45:56.246Z,11.70
2019-05-10T16:50:06.628Z,12.67
2019-05-10T16:54:24.330Z,11.73
2019-05-10T16:58:25.554Z,11.40
2019-05-10T17:02:36.835Z,11.40
2019-05-10T17:06:44.361Z,9.03
2019-05-10T17:10:52.940Z,10.30
2019-05-10T17:15:02.968Z,10.70
2019-05-10T17:19:11.838Z,8.40
2019-05-10T17:23:20.516Z,9.60
2019-05-10T17:27:29.220Z,8.73
2019-05-10T17:31:39.542Z,8.17
2019-05-10T17:35:48.190Z,9.27
2019-05-10T17:39:56.814Z,7.17
2019-05-10T17:44:05.503Z,7.90
2019-05-10T17:48:14.172Z,8.20
2019-05-10T17:52:22.807Z,9.73
2019-05-10T17:56:32.931Z,9.03
2019-05-10T18:00:41.748Z,8.60
2019-05-10T18:04:50.386Z,9.13
2019-05-10T18:08:58.988Z,8.37
2019-05-10T18:13:07.966Z,8.27
2019-05-10T18:17:20.904Z,10.00
2019-05-10T18:21:26.843Z,9.07
2019-05-10T18:25:35.449Z,14.47
2019-05-10T18:29:44.092Z,8.00
2019-05-10T18:33:54.532Z,8.93
2019-05-10T18:38:03.042Z,12.40
2019-05-10T18:42:11.684Z,9.40
2019-05-10T18:46:20.399Z,8.90
2019-05-10T18:50:29.047Z,9.43
2019-05-10T18:54:38.627Z,9.80
2019-05-10T18:58:47.288Z,8.90
2019-05-10T19:02:57.192Z,9.63
2019-05-10T19:07:09.892Z,9.87
2019-05-10T19:11:16.354Z,11.73
2019-05-10T19:15:24.943Z,9.80
2019-05-10T19:19:35.678Z,9.23
2019-05-10T19:23:43.907Z,11.47
2019-05-10T19:27:52.588Z,13.37
2019-05-10T19:32:01.165Z,12.70
2019-05-10T19:36:13.149Z,15.07
2019-05-10T19:40:20.597Z,13.10
2019-05-10T19:44:29.225Z,14.57
2019-05-10T19:48:37.853Z,13.27
2019-05-10T19:52:46.485Z,12.40
2019-05-10T19:56:55.609Z,11.17
2019-05-10T20:01:04.394Z,10.90
2019-05-10T20:05:13.093Z,11.13
2019-05-10T20:09:21.788Z,12.53
2019-05-10T20:13:30.473Z,13.73
2019-05-10T20:17:39.239Z,16.20
2019-05-10T20:21:47.889Z,13.87
2019-05-10T20:25:59.269Z,13.93
2019-05-10T20:30:08.068Z,13.23
2019-05-10T20:34:16.692Z,13.83
2019-05-10T20:38:25.309Z,13.40
2019-05-10T20:42:34.270Z,12.30
2019-05-10T20:46:42.895Z,13.37
2019-05-10T20:50:51.558Z,13.70
2019-05-10T20:55:00.305Z,14.33
2019-05-10T20:59:09.010Z,14.97
2019-05-10T21:03:17.676Z,15.43
2019-05-10T21:07:26.254Z,19.07
2019-05-10T21:11:34.911Z,14.97
2019-05-10T21:15:43.489Z,16.17
2019-05-10T21:19:52.162Z,16.47
2019-05-10T21:24:00.797Z,19.30
2019-05-10T21:28:09.424Z,19.90
2019-05-10T21:32:18.016Z,16.60
2019-05-10T21:36:26.673Z,16.70
2019-05-10T21:40:54.716Z,15.13
2019-05-10T21:45:03.556Z,17.37
2019-05-10T21:49:12.170Z,16.77
2019-05-10T21:53:20.818Z,22.17
2019-05-10T21:57:29.531Z,17.40
2019-05-10T22:01:38.324Z,20.70
2019-05-10T22:05:47.001Z,18.17
2019-05-10T22:09:55.699Z,15.80
2019-05-10T22:14:04.508Z,17.70
2019-05-10T22:18:13.181Z,17.47
2019-05-10T22:22:21.850Z,17.20
2019-05-10T22:26:30.512Z,19.20
2019-05-10T22:30:39.239Z,19.83
2019-05-10T22:34:47.931Z,18.83
2019-05-10T22:39:06.451Z,19.93
2019-05-10T22:43:07.192Z,22.03
2019-05-10T22:47:15.847Z,22.67
2019-05-10T22:51:24.536Z,25.80
2019-05-10T22:55:33.208Z,22.97
2019-05-10T22:59:41.909Z,26.30
2019-05-10T23:03:50.552Z,21.50
2019-05-10T23:07:59.262Z,19.67
2019-05-10T23:12:07.895Z,21.97
2019-05-10T23:16:16.618Z,22.33
2019-05-10T23:20:25.271Z,20.50
2019-05-10T23:24:38.345Z,22.93
2019-05-10T23:28:47.178Z,24.03
2019-05-10T23:32:56.295Z,26.10
2019-05-10T23:37:04.961Z,26.37
2019-05-10T23:41:13.613Z,25.97
2019-05-10T23:45:22.355Z,29.77
2019-05-10T23:49:30.994Z,25.17
2019-05-10T23:53:39.682Z,23.53
2019-05-10T23:57:48.329Z,25.97
